sensor_id;sensor_type;location;lat;lon;timestamp;temperature;humidity
64209;DHT22;50527;52.414;13.226;2023-04-29T00:00:40;12.40;94.20
64209;DHT22;50527;52.414;13.226;2023-04-29T00:03:05;12.40;94.60
64209;DHT22;50527;52.414;13.226;2023-04-29T00:05:31;12.40;94.40
64209;DHT22;50527;52.414;13.226;2023-04-29T00:07:56;12.40;94.30
64209;DHT22;50527;52.414;13.226;2023-04-29T00:10:22;12.40;94.20
64209;DHT22;50527;52.414;13.226;2023-04-29T00:12:47;12.30;94.40
64209;DHT22;50527;52.414;13.226;2023-04-29T00:15:16;12.30;94.50
64209;DHT22;50527;52.414;13.226;2023-04-29T00:17:41;12.40;94.50
64209;DHT22;50527;52.414;13.226;2023-04-29T00:20:07;12.40;94.60
64209;DHT22;50527;52.414;13.226;2023-04-29T00:22:33;12.30;94.90
64209;DHT22;50527;52.414;13.226;2023-04-29T00:24:59;12.30;95.40
64209;DHT22;50527;52.414;13.226;2023-04-29T00:27:24;12.30;95.70
64209;DHT22;50527;52.414;13.226;2023-04-29T00:29:50;12.30;95.70
64209;DHT22;50527;52.414;13.226;2023-04-29T00:32:16;12.20;95.50
64209;DHT22;50527;52.414;13.226;2023-04-29T00:34:41;12.20;95.80
64209;DHT22;50527;52.414;13.226;2023-04-29T00:37:07;12.20;95.90
64209;DHT22;50527;52.414;13.226;2023-04-29T00:39:32;12.20;95.70
64209;DHT22;50527;52.414;13.226;2023-04-29T00:41:58;12.20;95.70
64209;DHT22;50527;52.414;13.226;2023-04-29T00:44:23;12.10;96.30
64209;DHT22;50527;52.414;13.226;2023-04-29T00:46:49;12.10;97.70
64209;DHT22;50527;52.414;13.226;2023-04-29T00:49:14;12.10;98.80
64209;DHT22;50527;52.414;13.226;2023-04-29T00:51:41;12.10;99.90
64209;DHT22;50527;52.414;13.226;2023-04-29T00:54:07;12.00;99.90
64209;DHT22;50527;52.414;13.226;2023-04-29T00:56:34;12.00;99.90
64209;DHT22;50527;52.414;13.226;2023-04-29T00:59:01;12.00;99.90
64209;DHT22;50527;52.414;13.226;2023-04-29T01:01:28;11.90;99.90
64209;DHT22;50527;52.414;13.226;2023-04-29T01:03:54;11.90;99.90
64209;DHT22;50527;52.414;13.226;2023-04-29T01:06:40;11.80;99.90
64209;DHT22;50527;52.414;13.226;2023-04-29T01:12:24;11.60;99.90
64209;DHT22;50527;52.414;13.226;2023-04-29T01:15:17;11.70;99.90
64209;DHT22;50527;52.414;13.226;2023-04-29T01:18:25;11.60;99.90
64209;DHT22;50527;52.414;13.226;2023-04-29T01:20:50;11.60;99.90
64209;DHT22;50527;52.414;13.226;2023-04-29T01:23:16;11.70;99.90
64209;DHT22;50527;52.414;13.226;2023-04-29T01:25:42;11.70;99.90
64209;DHT22;50527;52.414;13.226;2023-04-29T01:28:25;11.70;99.90
64209;DHT22;50527;52.414;13.226;2023-04-29T01:31:02;11.80;99.90
64209;DHT22;50527;52.414;13.226;2023-04-29T01:33:54;11.80;99.90
64209;DHT22;50527;52.414;13.226;2023-04-29T01:36:26;11.70;99.90
64209;DHT22;50527;52.414;13.226;2023-04-29T01:39:15;11.60;99.90
64209;DHT22;50527;52.414;13.226;2023-04-29T01:41:56;11.60;99.90
64209;DHT22;50527;52.414;13.226;2023-04-29T01:44:28;11.60;99.90
64209;DHT22;50527;52.414;13.226;2023-04-29T01:46:56;11.60;99.90
64209;DHT22;50527;52.414;13.226;2023-04-29T01:49:25;11.50;99.90
64209;DHT22;50527;52.414;13.226;2023-04-29T01:51:51;11.50;99.90
64209;DHT22;50527;52.414;13.226;2023-04-29T01:54:17;11.60;99.90
64209;DHT22;50527;52.414;13.226;2023-04-29T01:56:43;11.60;99.90
64209;DHT22;50527;52.414;13.226;2023-04-29T01:59:09;11.60;99.90
64209;DHT22;50527;52.414;13.226;2023-04-29T02:01:35;11.70;99.90
64209;DHT22;50527;52.414;13.226;2023-04-29T02:04:00;11.70;99.90
64209;DHT22;50527;52.414;13.226;2023-04-29T02:06:26;11.60;99.90
64209;DHT22;50527;52.414;13.226;2023-04-29T02:08:52;11.60;99.90
64209;DHT22;50527;52.414;13.226;2023-04-29T02:11:17;11.60;99.90
64209;DHT22;50527;52.414;13.226;2023-04-29T02:13:43;11.60;99.90
64209;DHT22;50527;52.414;13.226;2023-04-29T02:16:10;11.60;99.90
64209;DHT22;50527;52.414;13.226;2023-04-29T02:18:36;11.50;99.90
64209;DHT22;50527;52.414;13.226;2023-04-29T02:21:01;11.50;99.90
64209;DHT22;50527;52.414;13.226;2023-04-29T02:23:27;11.60;99.90
64209;DHT22;50527;52.414;13.226;2023-04-29T02:25:52;11.60;99.90
64209;DHT22;50527;52.414;13.226;2023-04-29T02:28:18;11.60;99.90
64209;DHT22;50527;52.414;13.226;2023-04-29T02:30:43;11.60;99.90
64209;DHT22;50527;52.414;13.226;2023-04-29T02:33:09;11.60;99.90
64209;DHT22;50527;52.414;13.226;2023-04-29T02:35:34;11.50;99.90
64209;DHT22;50527;52.414;13.226;2023-04-29T02:38:00;11.50;99.90
64209;DHT22;50527;52.414;13.226;2023-04-29T02:40:26;11.60;99.90
64209;DHT22;50527;52.414;13.226;2023-04-29T02:42:51;11.60;99.90
64209;DHT22;50527;52.414;13.226;2023-04-29T02:45:17;11.60;99.90
64209;DHT22;50527;52.414;13.226;2023-04-29T02:47:42;11.60;99.90
64209;DHT22;50527;52.414;13.226;2023-04-29T02:50:08;11.60;99.90
64209;DHT22;50527;52.414;13.226;2023-04-29T02:52:34;11.60;99.90
64209;DHT22;50527;52.414;13.226;2023-04-29T02:55:00;11.50;99.90
64209;DHT22;50527;52.414;13.226;2023-04-29T02:57:25;11.50;99.90
64209;DHT22;50527;52.414;13.226;2023-04-29T02:59:51;11.50;99.90
64209;DHT22;50527;52.414;13.226;2023-04-29T03:02:16;11.60;99.90
64209;DHT22;50527;52.414;13.226;2023-04-29T03:04:42;11.50;99.90
64209;DHT22;50527;52.414;13.226;2023-04-29T03:07:07;11.60;99.90
64209;DHT22;50527;52.414;13.226;2023-04-29T03:09:33;11.60;99.90
64209;DHT22;50527;52.414;13.226;2023-04-29T03:11:58;11.70;99.90
64209;DHT22;50527;52.414;13.226;2023-04-29T03:14:24;11.60;99.90
64209;DHT22;50527;52.414;13.226;2023-04-29T03:16:49;11.60;99.90
64209;DHT22;50527;52.414;13.226;2023-04-29T03:19:15;11.60;99.90
64209;DHT22;50527;52.414;13.226;2023-04-29T03:21:41;11.60;99.90
64209;DHT22;50527;52.414;13.226;2023-04-29T03:24:06;11.60;99.90
64209;DHT22;50527;52.414;13.226;2023-04-29T03:26:32;11.50;99.90
64209;DHT22;50527;52.414;13.226;2023-04-29T03:28:57;11.60;99.90
64209;DHT22;50527;52.414;13.226;2023-04-29T03:31:23;11.60;99.90
64209;DHT22;50527;52.414;13.226;2023-04-29T03:33:49;11.60;99.90
64209;DHT22;50527;52.414;13.226;2023-04-29T03:36:15;11.70;99.90
64209;DHT22;50527;52.414;13.226;2023-04-29T03:38:41;11.60;99.90
64209;DHT22;50527;52.414;13.226;2023-04-29T03:41:06;11.60;99.90
64209;DHT22;50527;52.414;13.226;2023-04-29T03:43:32;11.70;99.90
64209;DHT22;50527;52.414;13.226;2023-04-29T03:45:57;11.70;99.90
64209;DHT22;50527;52.414;13.226;2023-04-29T03:48:23;11.70;99.90
64209;DHT22;50527;52.414;13.226;2023-04-29T03:50:49;11.70;99.90
64209;DHT22;50527;52.414;13.226;2023-04-29T03:53:16;11.70;99.90
64209;DHT22;50527;52.414;13.226;2023-04-29T03:55:41;11.70;99.90
64209;DHT22;50527;52.414;13.226;2023-04-29T03:58:07;11.70;99.90
64209;DHT22;50527;52.414;13.226;2023-04-29T04:00:32;11.70;99.90
64209;DHT22;50527;52.414;13.226;2023-04-29T04:02:58;11.80;99.90
64209;DHT22;50527;52.414;13.226;2023-04-29T04:05:24;11.80;99.90
64209;DHT22;50527;52.414;13.226;2023-04-29T04:07:51;11.80;99.90
64209;DHT22;50527;52.414;13.226;2023-04-29T04:10:17;11.90;99.90
64209;DHT22;50527;52.414;13.226;2023-04-29T04:12:43;11.90;99.90
64209;DHT22;50527;52.414;13.226;2023-04-29T04:15:08;11.90;99.90
64209;DHT22;50527;52.414;13.226;2023-04-29T04:17:34;11.90;99.90
64209;DHT22;50527;52.414;13.226;2023-04-29T04:20:00;11.90;99.90
64209;DHT22;50527;52.414;13.226;2023-04-29T04:22:25;11.90;99.90
64209;DHT22;50527;52.414;13.226;2023-04-29T04:24:53;12.00;99.90
64209;DHT22;50527;52.414;13.226;2023-04-29T04:27:18;12.00;99.90
64209;DHT22;50527;52.414;13.226;2023-04-29T04:29:44;11.90;99.90
64209;DHT22;50527;52.414;13.226;2023-04-29T04:32:09;12.00;99.90
64209;DHT22;50527;52.414;13.226;2023-04-29T04:34:35;12.00;99.90
64209;DHT22;50527;52.414;13.226;2023-04-29T04:37:01;12.00;99.90
64209;DHT22;50527;52.414;13.226;2023-04-29T04:39:26;12.00;99.90
64209;DHT22;50527;52.414;13.226;2023-04-29T04:41:52;12.00;99.90
64209;DHT22;50527;52.414;13.226;2023-04-29T04:44:17;12.00;99.90
64209;DHT22;50527;52.414;13.226;2023-04-29T04:46:43;12.00;99.90
64209;DHT22;50527;52.414;13.226;2023-04-29T04:49:08;11.90;99.90
64209;DHT22;50527;52.414;13.226;2023-04-29T04:51:34;11.90;99.90
64209;DHT22;50527;52.414;13.226;2023-04-29T04:53:59;11.90;99.90
64209;DHT22;50527;52.414;13.226;2023-04-29T04:56:25;11.90;99.90
64209;DHT22;50527;52.414;13.226;2023-04-29T04:58:50;12.00;99.90
64209;DHT22;50527;52.414;13.226;2023-04-29T05:01:16;12.00;99.90
64209;DHT22;50527;52.414;13.226;2023-04-29T05:03:41;12.00;99.90
64209;DHT22;50527;52.414;13.226;2023-04-29T05:06:07;12.00;99.90
64209;DHT22;50527;52.414;13.226;2023-04-29T05:08:32;12.00;99.90
64209;DHT22;50527;52.414;13.226;2023-04-29T05:10:58;12.00;99.90
64209;DHT22;50527;52.414;13.226;2023-04-29T05:13:23;12.00;99.90
64209;DHT22;50527;52.414;13.226;2023-04-29T05:15:50;12.00;99.90
64209;DHT22;50527;52.414;13.226;2023-04-29T05:18:15;12.00;99.90
64209;DHT22;50527;52.414;13.226;2023-04-29T05:20:41;12.00;99.90
64209;DHT22;50527;52.414;13.226;2023-04-29T05:23:06;12.10;99.90
64209;DHT22;50527;52.414;13.226;2023-04-29T05:25:33;12.00;99.90
64209;DHT22;50527;52.414;13.226;2023-04-29T05:27:58;12.00;99.90
64209;DHT22;50527;52.414;13.226;2023-04-29T05:30:24;12.10;99.90
64209;DHT22;50527;52.414;13.226;2023-04-29T05:32:49;12.00;99.90
64209;DHT22;50527;52.414;13.226;2023-04-29T05:35:15;12.10;99.90
64209;DHT22;50527;52.414;13.226;2023-04-29T05:37:40;12.10;99.90
64209;DHT22;50527;52.414;13.226;2023-04-29T05:40:06;12.10;99.90
64209;DHT22;50527;52.414;13.226;2023-04-29T05:42:32;12.10;99.90
64209;DHT22;50527;52.414;13.226;2023-04-29T05:44:58;12.20;99.90
64209;DHT22;50527;52.414;13.226;2023-04-29T05:47:23;12.20;99.90
64209;DHT22;50527;52.414;13.226;2023-04-29T05:49:49;12.30;99.90
64209;DHT22;50527;52.414;13.226;2023-04-29T05:52:14;12.20;99.90
64209;DHT22;50527;52.414;13.226;2023-04-29T05:54:40;12.20;99.90
64209;DHT22;50527;52.414;13.226;2023-04-29T05:57:08;12.30;99.90
64209;DHT22;50527;52.414;13.226;2023-04-29T05:59:33;12.30;99.90
64209;DHT22;50527;52.414;13.226;2023-04-29T06:02:00;12.30;99.90
64209;DHT22;50527;52.414;13.226;2023-04-29T06:04:25;12.40;99.90
64209;DHT22;50527;52.414;13.226;2023-04-29T06:06:52;12.40;99.90
64209;DHT22;50527;52.414;13.226;2023-04-29T06:09:21;12.40;99.90
64209;DHT22;50527;52.414;13.226;2023-04-29T06:11:49;12.40;99.90
64209;DHT22;50527;52.414;13.226;2023-04-29T06:14:15;12.40;99.90
64209;DHT22;50527;52.414;13.226;2023-04-29T06:16:40;12.50;99.90
64209;DHT22;50527;52.414;13.226;2023-04-29T06:19:06;12.40;99.90
64209;DHT22;50527;52.414;13.226;2023-04-29T06:21:31;12.40;99.90
64209;DHT22;50527;52.414;13.226;2023-04-29T06:23:57;12.40;99.90
64209;DHT22;50527;52.414;13.226;2023-04-29T06:26:23;12.50;99.90
64209;DHT22;50527;52.414;13.226;2023-04-29T06:28:48;12.50;99.90
64209;DHT22;50527;52.414;13.226;2023-04-29T06:31:14;12.50;99.90
64209;DHT22;50527;52.414;13.226;2023-04-29T06:33:40;12.50;99.90
64209;DHT22;50527;52.414;13.226;2023-04-29T06:36:06;12.50;99.90
64209;DHT22;50527;52.414;13.226;2023-04-29T06:38:31;12.50;99.90
64209;DHT22;50527;52.414;13.226;2023-04-29T06:40:57;12.50;99.90
64209;DHT22;50527;52.414;13.226;2023-04-29T06:43:26;12.50;99.90
64209;DHT22;50527;52.414;13.226;2023-04-29T06:45:51;12.60;99.90
64209;DHT22;50527;52.414;13.226;2023-04-29T06:48:17;12.50;99.90
64209;DHT22;50527;52.414;13.226;2023-04-29T06:50:52;12.50;99.90
64209;DHT22;50527;52.414;13.226;2023-04-29T06:53:18;12.50;99.90
64209;DHT22;50527;52.414;13.226;2023-04-29T06:55:44;12.50;99.90
64209;DHT22;50527;52.414;13.226;2023-04-29T06:58:11;12.50;99.90
64209;DHT22;50527;52.414;13.226;2023-04-29T07:00:37;12.60;99.90
64209;DHT22;50527;52.414;13.226;2023-04-29T07:03:03;12.70;99.90
64209;DHT22;50527;52.414;13.226;2023-04-29T07:05:28;12.70;99.90
64209;DHT22;50527;52.414;13.226;2023-04-29T07:07:54;12.70;99.90
64209;DHT22;50527;52.414;13.226;2023-04-29T07:10:19;12.70;99.90
64209;DHT22;50527;52.414;13.226;2023-04-29T07:12:45;12.70;99.90
64209;DHT22;50527;52.414;13.226;2023-04-29T07:15:10;12.60;99.90
64209;DHT22;50527;52.414;13.226;2023-04-29T07:17:36;12.50;99.90
64209;DHT22;50527;52.414;13.226;2023-04-29T07:20:01;12.50;99.90
64209;DHT22;50527;52.414;13.226;2023-04-29T07:22:28;12.50;99.90
64209;DHT22;50527;52.414;13.226;2023-04-29T07:24:54;12.40;99.90
64209;DHT22;50527;52.414;13.226;2023-04-29T07:27:20;12.30;99.90
64209;DHT22;50527;52.414;13.226;2023-04-29T07:29:45;12.30;99.90
64209;DHT22;50527;52.414;13.226;2023-04-29T07:32:11;12.20;99.90
64209;DHT22;50527;52.414;13.226;2023-04-29T07:34:36;12.30;99.90
64209;DHT22;50527;52.414;13.226;2023-04-29T07:37:02;12.30;99.90
64209;DHT22;50527;52.414;13.226;2023-04-29T07:39:28;12.30;99.90
64209;DHT22;50527;52.414;13.226;2023-04-29T07:41:54;12.40;99.90
64209;DHT22;50527;52.414;13.226;2023-04-29T07:44:20;12.30;99.90
64209;DHT22;50527;52.414;13.226;2023-04-29T07:46:46;12.20;99.90
64209;DHT22;50527;52.414;13.226;2023-04-29T07:49:12;12.20;99.90
64209;DHT22;50527;52.414;13.226;2023-04-29T07:51:40;12.20;99.90
64209;DHT22;50527;52.414;13.226;2023-04-29T07:54:06;12.20;99.90
64209;DHT22;50527;52.414;13.226;2023-04-29T07:56:31;12.20;99.90
64209;DHT22;50527;52.414;13.226;2023-04-29T07:58:58;12.20;99.90
64209;DHT22;50527;52.414;13.226;2023-04-29T08:01:24;12.20;99.90
64209;DHT22;50527;52.414;13.226;2023-04-29T08:03:50;12.30;99.90
64209;DHT22;50527;52.414;13.226;2023-04-29T08:06:15;12.20;99.90
64209;DHT22;50527;52.414;13.226;2023-04-29T08:08:43;12.10;99.90
64209;DHT22;50527;52.414;13.226;2023-04-29T08:11:18;12.20;99.90
64209;DHT22;50527;52.414;13.226;2023-04-29T08:13:44;12.10;99.90
64209;DHT22;50527;52.414;13.226;2023-04-29T08:16:10;12.10;99.90
64209;DHT22;50527;52.414;13.226;2023-04-29T08:18:36;12.10;99.90
64209;DHT22;50527;52.414;13.226;2023-04-29T08:21:02;12.10;99.90
64209;DHT22;50527;52.414;13.226;2023-04-29T08:23:28;12.00;99.90
64209;DHT22;50527;52.414;13.226;2023-04-29T08:25:53;12.00;99.90
64209;DHT22;50527;52.414;13.226;2023-04-29T08:28:20;12.10;99.90
64209;DHT22;50527;52.414;13.226;2023-04-29T08:30:46;12.00;99.90
64209;DHT22;50527;52.414;13.226;2023-04-29T08:33:12;12.00;99.90
64209;DHT22;50527;52.414;13.226;2023-04-29T08:35:38;12.10;99.90
64209;DHT22;50527;52.414;13.226;2023-04-29T08:38:05;12.10;99.90
64209;DHT22;50527;52.414;13.226;2023-04-29T08:40:33;12.20;99.90
64209;DHT22;50527;52.414;13.226;2023-04-29T08:43:00;12.20;99.90
64209;DHT22;50527;52.414;13.226;2023-04-29T08:45:27;12.10;99.90
64209;DHT22;50527;52.414;13.226;2023-04-29T08:47:54;12.20;99.90
64209;DHT22;50527;52.414;13.226;2023-04-29T08:50:23;12.20;99.90
64209;DHT22;50527;52.414;13.226;2023-04-29T08:52:49;12.20;99.90
64209;DHT22;50527;52.414;13.226;2023-04-29T08:55:14;12.10;99.90
64209;DHT22;50527;52.414;13.226;2023-04-29T08:57:42;12.10;99.90
64209;DHT22;50527;52.414;13.226;2023-04-29T09:00:09;12.10;99.90
64209;DHT22;50527;52.414;13.226;2023-04-29T09:02:40;12.10;99.90
64209;DHT22;50527;52.414;13.226;2023-04-29T09:05:10;12.00;99.90
64209;DHT22;50527;52.414;13.226;2023-04-29T09:07:37;12.00;99.90
64209;DHT22;50527;52.414;13.226;2023-04-29T09:10:04;12.00;99.90
64209;DHT22;50527;52.414;13.226;2023-04-29T09:12:30;12.00;99.90
64209;DHT22;50527;52.414;13.226;2023-04-29T09:14:56;11.80;99.90
64209;DHT22;50527;52.414;13.226;2023-04-29T09:22:50;11.90;99.90
64209;DHT22;50527;52.414;13.226;2023-04-29T09:25:16;11.90;99.90
64209;DHT22;50527;52.414;13.226;2023-04-29T09:27:42;11.80;99.90
64209;DHT22;50527;52.414;13.226;2023-04-29T09:30:08;11.80;99.90
64209;DHT22;50527;52.414;13.226;2023-04-29T09:32:34;11.80;99.90
64209;DHT22;50527;52.414;13.226;2023-04-29T09:35:20;11.70;99.90
64209;DHT22;50527;52.414;13.226;2023-04-29T09:37:46;11.70;99.90
64209;DHT22;50527;52.414;13.226;2023-04-29T09:40:32;11.80;99.90
64209;DHT22;50527;52.414;13.226;2023-04-29T09:42:59;11.80;99.90
64209;DHT22;50527;52.414;13.226;2023-04-29T09:45:42;11.80;99.90
64209;DHT22;50527;52.414;13.226;2023-04-29T09:48:08;11.80;99.90
64209;DHT22;50527;52.414;13.226;2023-04-29T09:50:35;11.90;99.90
64209;DHT22;50527;52.414;13.226;2023-04-29T09:53:05;11.80;99.90
64209;DHT22;50527;52.414;13.226;2023-04-29T09:58:31;11.70;99.90
64209;DHT22;50527;52.414;13.226;2023-04-29T10:01:01;11.70;99.90
64209;DHT22;50527;52.414;13.226;2023-04-29T10:03:36;11.80;99.90
64209;DHT22;50527;52.414;13.226;2023-04-29T10:06:04;11.80;99.90
64209;DHT22;50527;52.414;13.226;2023-04-29T10:08:31;11.70;99.90
64209;DHT22;50527;52.414;13.226;2023-04-29T10:11:02;11.80;99.90
64209;DHT22;50527;52.414;13.226;2023-04-29T10:13:29;11.80;99.90
64209;DHT22;50527;52.414;13.226;2023-04-29T10:16:26;11.80;99.90
64209;DHT22;50527;52.414;13.226;2023-04-29T10:18:53;11.80;99.90
64209;DHT22;50527;52.414;13.226;2023-04-29T10:21:23;11.80;99.90
64209;DHT22;50527;52.414;13.226;2023-04-29T10:23:52;11.70;99.90
64209;DHT22;50527;52.414;13.226;2023-04-29T10:26:18;11.70;99.90
64209;DHT22;50527;52.414;13.226;2023-04-29T10:28:46;11.80;99.90
64209;DHT22;50527;52.414;13.226;2023-04-29T10:31:15;11.80;99.90
64209;DHT22;50527;52.414;13.226;2023-04-29T10:33:43;11.90;99.90
64209;DHT22;50527;52.414;13.226;2023-04-29T10:36:10;11.90;99.90
64209;DHT22;50527;52.414;13.226;2023-04-29T10:38:39;11.90;99.90
64209;DHT22;50527;52.414;13.226;2023-04-29T10:41:14;12.00;99.90
64209;DHT22;50527;52.414;13.226;2023-04-29T10:43:41;11.90;99.90
64209;DHT22;50527;52.414;13.226;2023-04-29T10:48:45;11.90;99.90
64209;DHT22;50527;52.414;13.226;2023-04-29T10:51:11;12.00;99.90
64209;DHT22;50527;52.414;13.226;2023-04-29T10:53:57;12.00;99.90
64209;DHT22;50527;52.414;13.226;2023-04-29T10:56:47;12.10;99.90
64209;DHT22;50527;52.414;13.226;2023-04-29T11:01:51;12.00;99.90
64209;DHT22;50527;52.414;13.226;2023-04-29T11:04:19;12.00;99.90
64209;DHT22;50527;52.414;13.226;2023-04-29T11:06:55;12.20;99.90
64209;DHT22;50527;52.414;13.226;2023-04-29T11:09:26;12.20;99.90
64209;DHT22;50527;52.414;13.226;2023-04-29T11:11:59;12.20;99.90
64209;DHT22;50527;52.414;13.226;2023-04-29T11:17:03;12.40;99.90
64209;DHT22;50527;52.414;13.226;2023-04-29T11:19:34;12.40;99.90
64209;DHT22;50527;52.414;13.226;2023-04-29T11:22:10;12.40;99.90
64209;DHT22;50527;52.414;13.226;2023-04-29T11:24:51;12.30;99.90
64209;DHT22;50527;52.414;13.226;2023-04-29T11:27:17;12.40;99.90
64209;DHT22;50527;52.414;13.226;2023-04-29T11:29:45;12.60;99.90
64209;DHT22;50527;52.414;13.226;2023-04-29T11:32:11;12.70;99.90
64209;DHT22;50527;52.414;13.226;2023-04-29T11:34:37;12.90;99.90
64209;DHT22;50527;52.414;13.226;2023-04-29T11:37:04;13.10;99.90
64209;DHT22;50527;52.414;13.226;2023-04-29T11:39:33;13.10;99.90
64209;DHT22;50527;52.414;13.226;2023-04-29T11:42:08;13.20;99.90
64209;DHT22;50527;52.414;13.226;2023-04-29T11:44:34;13.20;99.90
64209;DHT22;50527;52.414;13.226;2023-04-29T11:47:04;13.30;99.90
64209;DHT22;50527;52.414;13.226;2023-04-29T11:49:33;13.30;99.90
64209;DHT22;50527;52.414;13.226;2023-04-29T11:51:59;13.30;99.90
64209;DHT22;50527;52.414;13.226;2023-04-29T11:54:31;13.40;99.90
64209;DHT22;50527;52.414;13.226;2023-04-29T11:56:59;13.40;99.90
64209;DHT22;50527;52.414;13.226;2023-04-29T11:59:30;13.50;97.30
64209;DHT22;50527;52.414;13.226;2023-04-29T12:01:57;13.50;99.30
64209;DHT22;50527;52.414;13.226;2023-04-29T12:04:22;13.50;98.80
64209;DHT22;50527;52.414;13.226;2023-04-29T12:06:50;13.70;99.20
64209;DHT22;50527;52.414;13.226;2023-04-29T12:09:16;13.50;98.40
64209;DHT22;50527;52.414;13.226;2023-04-29T12:11:44;13.40;99.60
64209;DHT22;50527;52.414;13.226;2023-04-29T12:17:36;13.20;99.90
64209;DHT22;50527;52.414;13.226;2023-04-29T12:20:02;13.10;99.50
64209;DHT22;50527;52.414;13.226;2023-04-29T12:22:31;13.00;99.90
64209;DHT22;50527;52.414;13.226;2023-04-29T12:24:57;12.90;99.70
64209;DHT22;50527;52.414;13.226;2023-04-29T12:27:23;13.00;99.90
64209;DHT22;50527;52.414;13.226;2023-04-29T12:29:51;12.90;99.90
64209;DHT22;50527;52.414;13.226;2023-04-29T12:32:17;13.00;99.90
64209;DHT22;50527;52.414;13.226;2023-04-29T12:34:46;13.00;99.90
64209;DHT22;50527;52.414;13.226;2023-04-29T12:37:12;13.10;99.90
64209;DHT22;50527;52.414;13.226;2023-04-29T12:39:37;13.20;99.90
64209;DHT22;50527;52.414;13.226;2023-04-29T12:42:03;13.40;99.90
64209;DHT22;50527;52.414;13.226;2023-04-29T12:44:35;13.40;99.90
64209;DHT22;50527;52.414;13.226;2023-04-29T12:47:08;13.70;99.90
64209;DHT22;50527;52.414;13.226;2023-04-29T12:49:44;13.80;98.30
64209;DHT22;50527;52.414;13.226;2023-04-29T12:52:10;14.10;98.90
64209;DHT22;50527;52.414;13.226;2023-04-29T12:54:37;14.40;95.80
64209;DHT22;50527;52.414;13.226;2023-04-29T12:57:05;14.60;94.30
64209;DHT22;50527;52.414;13.226;2023-04-29T12:59:30;14.80;93.50
64209;DHT22;50527;52.414;13.226;2023-04-29T13:01:56;14.80;92.00
64209;DHT22;50527;52.414;13.226;2023-04-29T13:04:21;14.80;93.40
64209;DHT22;50527;52.414;13.226;2023-04-29T13:06:47;14.90;92.00
64209;DHT22;50527;52.414;13.226;2023-04-29T13:09:12;15.00;91.90
64209;DHT22;50527;52.414;13.226;2023-04-29T13:11:38;15.10;90.60
64209;DHT22;50527;52.414;13.226;2023-04-29T13:14:06;15.20;90.00
64209;DHT22;50527;52.414;13.226;2023-04-29T13:16:35;15.20;90.00
64209;DHT22;50527;52.414;13.226;2023-04-29T13:25:45;15.40;86.70
64209;DHT22;50527;52.414;13.226;2023-04-29T13:28:10;15.30;89.40
64209;DHT22;50527;52.414;13.226;2023-04-29T13:30:36;15.10;88.80
64209;DHT22;50527;52.414;13.226;2023-04-29T13:33:01;15.00;90.10
64209;DHT22;50527;52.414;13.226;2023-04-29T13:35:26;14.90;89.20
64209;DHT22;50527;52.414;13.226;2023-04-29T13:37:52;14.90;89.90
64209;DHT22;50527;52.414;13.226;2023-04-29T13:40:17;14.90;90.50
64209;DHT22;50527;52.414;13.226;2023-04-29T13:42:55;14.90;91.00
64209;DHT22;50527;52.414;13.226;2023-04-29T13:45:21;15.10;90.60
64209;DHT22;50527;52.414;13.226;2023-04-29T13:47:47;15.40;86.40
64209;DHT22;50527;52.414;13.226;2023-04-29T13:50:12;15.60;85.40
64209;DHT22;50527;52.414;13.226;2023-04-29T13:52:38;15.70;79.30
64209;DHT22;50527;52.414;13.226;2023-04-29T13:55:03;15.70;79.40
64209;DHT22;50527;52.414;13.226;2023-04-29T13:57:29;15.50;80.10
64209;DHT22;50527;52.414;13.226;2023-04-29T14:03:51;15.40;79.50
64209;DHT22;50527;52.414;13.226;2023-04-29T14:06:17;15.40;80.30
64209;DHT22;50527;52.414;13.226;2023-04-29T14:08:43;15.50;79.00
64209;DHT22;50527;52.414;13.226;2023-04-29T14:14:30;15.40;79.20
64209;DHT22;50527;52.414;13.226;2023-04-29T14:20:18;15.50;80.00
64209;DHT22;50527;52.414;13.226;2023-04-29T14:22:43;15.40;81.60
64209;DHT22;50527;52.414;13.226;2023-04-29T14:25:09;15.40;81.50
64209;DHT22;50527;52.414;13.226;2023-04-29T14:31:27;15.40;83.50
64209;DHT22;50527;52.414;13.226;2023-04-29T14:34:27;15.30;78.20
64209;DHT22;50527;52.414;13.226;2023-04-29T14:36:52;15.50;78.00
64209;DHT22;50527;52.414;13.226;2023-04-29T14:39:18;15.60;81.10
64209;DHT22;50527;52.414;13.226;2023-04-29T14:45:05;15.80;75.50
64209;DHT22;50527;52.414;13.226;2023-04-29T14:47:32;15.80;76.90
64209;DHT22;50527;52.414;13.226;2023-04-29T14:49:57;15.70;76.60
64209;DHT22;50527;52.414;13.226;2023-04-29T14:52:23;15.40;77.20
64209;DHT22;50527;52.414;13.226;2023-04-29T14:54:58;15.30;76.50
64209;DHT22;50527;52.414;13.226;2023-04-29T14:57:23;15.10;77.10
64209;DHT22;50527;52.414;13.226;2023-04-29T15:03:11;15.00;75.60
64209;DHT22;50527;52.414;13.226;2023-04-29T15:05:37;15.00;75.40
64209;DHT22;50527;52.414;13.226;2023-04-29T15:31:58;14.70;80.90
64209;DHT22;50527;52.414;13.226;2023-04-29T15:36:59;14.60;82.80
64209;DHT22;50527;52.414;13.226;2023-04-29T15:39:25;14.50;83.20
64209;DHT22;50527;52.414;13.226;2023-04-29T15:41:50;14.40;83.20
64209;DHT22;50527;52.414;13.226;2023-04-29T15:44:15;14.50;82.80
64209;DHT22;50527;52.414;13.226;2023-04-29T15:46:41;14.40;83.00
64209;DHT22;50527;52.414;13.226;2023-04-29T15:49:06;14.40;84.30
64209;DHT22;50527;52.414;13.226;2023-04-29T15:51:32;14.30;84.00
64209;DHT22;50527;52.414;13.226;2023-04-29T15:53:57;14.30;84.40
64209;DHT22;50527;52.414;13.226;2023-04-29T15:56:23;14.30;86.30
64209;DHT22;50527;52.414;13.226;2023-04-29T15:58:49;14.30;87.70
64209;DHT22;50527;52.414;13.226;2023-04-29T16:01:15;14.40;87.60
64209;DHT22;50527;52.414;13.226;2023-04-29T16:03:40;14.40;88.20
64209;DHT22;50527;52.414;13.226;2023-04-29T16:06:06;14.50;84.60
64209;DHT22;50527;52.414;13.226;2023-04-29T16:08:32;14.60;82.60
64209;DHT22;50527;52.414;13.226;2023-04-29T16:10:57;14.70;80.80
64209;DHT22;50527;52.414;13.226;2023-04-29T16:13:23;14.80;81.60
64209;DHT22;50527;52.414;13.226;2023-04-29T16:15:48;14.80;86.40
64209;DHT22;50527;52.414;13.226;2023-04-29T16:18:14;14.70;86.30
64209;DHT22;50527;52.414;13.226;2023-04-29T16:20:41;14.70;84.60
64209;DHT22;50527;52.414;13.226;2023-04-29T16:23:07;14.70;83.60
64209;DHT22;50527;52.414;13.226;2023-04-29T16:25:32;14.80;81.80
64209;DHT22;50527;52.414;13.226;2023-04-29T16:27:58;14.70;83.30
64209;DHT22;50527;52.414;13.226;2023-04-29T16:30:23;14.90;81.70
64209;DHT22;50527;52.414;13.226;2023-04-29T16:32:49;15.00;81.00